sensor_id;sensor_type;location;lat;lon;timestamp;temperature;humidity
18139;DHT22;9195;53.176;9.486;2022-08-30T00:00:34;14.80;99.90
18139;DHT22;9195;53.176;9.486;2022-08-30T00:03:18;14.80;99.90
18139;DHT22;9195;53.176;9.486;2022-08-30T00:05:45;14.90;99.90
18139;DHT22;9195;53.176;9.486;2022-08-30T00:08:11;14.90;99.90
18139;DHT22;9195;53.176;9.486;2022-08-30T00:10:37;15.00;99.90
18139;DHT22;9195;53.176;9.486;2022-08-30T00:13:04;15.00;99.90
18139;DHT22;9195;53.176;9.486;2022-08-30T00:15:31;15.00;99.90
18139;DHT22;9195;53.176;9.486;2022-08-30T00:17:57;15.00;99.90
18139;DHT22;9195;53.176;9.486;2022-08-30T00:20:27;15.00;99.90
18139;DHT22;9195;53.176;9.486;2022-08-30T00:22:53;15.00;99.90
18139;DHT22;9195;53.176;9.486;2022-08-30T00:25:19;15.10;99.90
18139;DHT22;9195;53.176;9.486;2022-08-30T00:27:45;15.10;99.90
18139;DHT22;9195;53.176;9.486;2022-08-30T00:30:12;15.20;99.90
18139;DHT22;9195;53.176;9.486;2022-08-30T00:32:39;15.20;99.90
18139;DHT22;9195;53.176;9.486;2022-08-30T00:35:07;15.20;99.90
18139;DHT22;9195;53.176;9.486;2022-08-30T00:37:33;15.20;99.90
18139;DHT22;9195;53.176;9.486;2022-08-30T00:39:59;15.30;99.90
18139;DHT22;9195;53.176;9.486;2022-08-30T00:42:24;15.30;99.90
18139;DHT22;9195;53.176;9.486;2022-08-30T00:44:51;15.30;99.90
18139;DHT22;9195;53.176;9.486;2022-08-30T00:47:17;15.20;99.90
18139;DHT22;9195;53.176;9.486;2022-08-30T00:49:46;15.20;99.90
18139;DHT22;9195;53.176;9.486;2022-08-30T00:52:13;15.20;99.90
18139;DHT22;9195;53.176;9.486;2022-08-30T00:54:41;15.20;99.90
18139;DHT22;9195;53.176;9.486;2022-08-30T00:57:09;15.20;99.90
18139;DHT22;9195;53.176;9.486;2022-08-30T00:59:35;15.20;99.90
18139;DHT22;9195;53.176;9.486;2022-08-30T01:02:01;15.20;99.90
18139;DHT22;9195;53.176;9.486;2022-08-30T01:04:28;15.20;99.90
18139;DHT22;9195;53.176;9.486;2022-08-30T01:06:54;15.20;99.90
18139;DHT22;9195;53.176;9.486;2022-08-30T01:09:20;15.30;99.90
18139;DHT22;9195;53.176;9.486;2022-08-30T01:11:46;15.30;99.90
18139;DHT22;9195;53.176;9.486;2022-08-30T01:14:13;15.40;99.90
18139;DHT22;9195;53.176;9.486;2022-08-30T01:16:41;15.40;99.90
18139;DHT22;9195;53.176;9.486;2022-08-30T01:19:17;15.40;99.90
18139;DHT22;9195;53.176;9.486;2022-08-30T01:21:51;15.40;99.90
18139;DHT22;9195;53.176;9.486;2022-08-30T01:24:18;15.30;99.90
18139;DHT22;9195;53.176;9.486;2022-08-30T01:26:45;15.30;99.90
18139;DHT22;9195;53.176;9.486;2022-08-30T01:29:15;15.30;99.90
18139;DHT22;9195;53.176;9.486;2022-08-30T01:31:41;15.40;99.90
18139;DHT22;9195;53.176;9.486;2022-08-30T01:34:07;15.40;99.90
18139;DHT22;9195;53.176;9.486;2022-08-30T01:36:35;15.40;99.90
18139;DHT22;9195;53.176;9.486;2022-08-30T01:39:03;15.40;99.90
18139;DHT22;9195;53.176;9.486;2022-08-30T01:41:33;15.30;99.90
18139;DHT22;9195;53.176;9.486;2022-08-30T01:44:02;15.40;99.90
18139;DHT22;9195;53.176;9.486;2022-08-30T01:46:35;15.30;99.90
18139;DHT22;9195;53.176;9.486;2022-08-30T01:49:04;15.40;99.90
18139;DHT22;9195;53.176;9.486;2022-08-30T01:51:30;15.40;99.90
18139;DHT22;9195;53.176;9.486;2022-08-30T01:53:56;15.40;99.90
18139;DHT22;9195;53.176;9.486;2022-08-30T01:56:23;15.40;99.90
18139;DHT22;9195;53.176;9.486;2022-08-30T01:58:49;15.40;99.90
18139;DHT22;9195;53.176;9.486;2022-08-30T02:01:16;15.40;99.90
18139;DHT22;9195;53.176;9.486;2022-08-30T02:03:43;15.40;99.90
18139;DHT22;9195;53.176;9.486;2022-08-30T02:06:12;15.50;99.90
18139;DHT22;9195;53.176;9.486;2022-08-30T02:08:39;15.50;99.90
18139;DHT22;9195;53.176;9.486;2022-08-30T02:11:05;15.50;99.90
18139;DHT22;9195;53.176;9.486;2022-08-30T02:13:32;15.60;99.90
18139;DHT22;9195;53.176;9.486;2022-08-30T02:15:58;15.60;99.90
18139;DHT22;9195;53.176;9.486;2022-08-30T02:18:25;15.60;99.90
18139;DHT22;9195;53.176;9.486;2022-08-30T02:20:51;15.60;99.90
18139;DHT22;9195;53.176;9.486;2022-08-30T02:23:17;15.60;99.90
18139;DHT22;9195;53.176;9.486;2022-08-30T02:25:44;15.60;99.90
18139;DHT22;9195;53.176;9.486;2022-08-30T02:28:10;15.60;99.90
18139;DHT22;9195;53.176;9.486;2022-08-30T02:30:36;15.60;99.90
18139;DHT22;9195;53.176;9.486;2022-08-30T02:33:02;15.60;99.90
18139;DHT22;9195;53.176;9.486;2022-08-30T02:35:27;15.60;99.90
18139;DHT22;9195;53.176;9.486;2022-08-30T02:37:53;15.60;99.90
18139;DHT22;9195;53.176;9.486;2022-08-30T02:40:19;15.60;99.90
18139;DHT22;9195;53.176;9.486;2022-08-30T02:42:47;15.60;99.90
18139;DHT22;9195;53.176;9.486;2022-08-30T02:45:12;15.60;99.90
18139;DHT22;9195;53.176;9.486;2022-08-30T02:47:40;15.60;99.90
18139;DHT22;9195;53.176;9.486;2022-08-30T02:50:07;15.60;99.90
18139;DHT22;9195;53.176;9.486;2022-08-30T02:52:33;15.60;99.90
18139;DHT22;9195;53.176;9.486;2022-08-30T02:54:59;15.70;99.90
18139;DHT22;9195;53.176;9.486;2022-08-30T02:57:24;15.60;99.90
18139;DHT22;9195;53.176;9.486;2022-08-30T02:59:50;15.70;99.90
18139;DHT22;9195;53.176;9.486;2022-08-30T03:02:16;15.80;99.90
18139;DHT22;9195;53.176;9.486;2022-08-30T03:04:42;15.80;99.90
18139;DHT22;9195;53.176;9.486;2022-08-30T03:07:11;15.70;99.90
18139;DHT22;9195;53.176;9.486;2022-08-30T03:09:37;15.80;99.90
18139;DHT22;9195;53.176;9.486;2022-08-30T03:12:03;15.80;99.90
18139;DHT22;9195;53.176;9.486;2022-08-30T03:14:31;15.80;99.90
18139;DHT22;9195;53.176;9.486;2022-08-30T03:16:57;15.80;99.90
18139;DHT22;9195;53.176;9.486;2022-08-30T03:19:23;15.80;99.90
18139;DHT22;9195;53.176;9.486;2022-08-30T03:21:50;15.80;99.90
18139;DHT22;9195;53.176;9.486;2022-08-30T03:24:16;15.80;99.90
18139;DHT22;9195;53.176;9.486;2022-08-30T03:26:41;15.80;99.90
18139;DHT22;9195;53.176;9.486;2022-08-30T03:29:07;15.80;99.90
18139;DHT22;9195;53.176;9.486;2022-08-30T03:31:32;15.80;99.90
18139;DHT22;9195;53.176;9.486;2022-08-30T03:33:58;15.80;99.90
18139;DHT22;9195;53.176;9.486;2022-08-30T03:36:24;15.80;99.90
18139;DHT22;9195;53.176;9.486;2022-08-30T03:38:49;15.80;99.90
18139;DHT22;9195;53.176;9.486;2022-08-30T03:41:15;15.80;99.90
18139;DHT22;9195;53.176;9.486;2022-08-30T03:43:42;15.80;99.90
18139;DHT22;9195;53.176;9.486;2022-08-30T03:46:08;15.80;99.90
18139;DHT22;9195;53.176;9.486;2022-08-30T03:48:35;15.90;99.90
18139;DHT22;9195;53.176;9.486;2022-08-30T03:51:00;15.90;99.90
18139;DHT22;9195;53.176;9.486;2022-08-30T03:53:26;15.90;99.90
18139;DHT22;9195;53.176;9.486;2022-08-30T03:55:52;16.00;99.90
18139;DHT22;9195;53.176;9.486;2022-08-30T03:58:17;15.90;99.90
18139;DHT22;9195;53.176;9.486;2022-08-30T04:00:43;15.90;99.90
18139;DHT22;9195;53.176;9.486;2022-08-30T04:03:08;15.90;99.90
18139;DHT22;9195;53.176;9.486;2022-08-30T04:05:34;15.90;99.90
18139;DHT22;9195;53.176;9.486;2022-08-30T04:08:00;16.00;99.90
18139;DHT22;9195;53.176;9.486;2022-08-30T04:10:25;15.90;99.90
18139;DHT22;9195;53.176;9.486;2022-08-30T04:12:51;15.90;99.90
18139;DHT22;9195;53.176;9.486;2022-08-30T04:15:18;15.90;99.90
18139;DHT22;9195;53.176;9.486;2022-08-30T04:17:44;16.00;99.90
18139;DHT22;9195;53.176;9.486;2022-08-30T04:20:10;15.90;99.90
18139;DHT22;9195;53.176;9.486;2022-08-30T04:22:36;16.00;99.90
18139;DHT22;9195;53.176;9.486;2022-08-30T04:25:03;16.00;99.90
18139;DHT22;9195;53.176;9.486;2022-08-30T04:27:28;16.00;99.90
18139;DHT22;9195;53.176;9.486;2022-08-30T04:29:54;16.00;99.90
18139;DHT22;9195;53.176;9.486;2022-08-30T04:32:20;16.00;99.90
18139;DHT22;9195;53.176;9.486;2022-08-30T04:34:46;15.90;99.90
18139;DHT22;9195;53.176;9.486;2022-08-30T04:37:11;16.00;99.90
18139;DHT22;9195;53.176;9.486;2022-08-30T04:39:38;15.90;99.90
18139;DHT22;9195;53.176;9.486;2022-08-30T04:42:03;16.00;99.90
18139;DHT22;9195;53.176;9.486;2022-08-30T04:44:30;16.00;99.90
18139;DHT22;9195;53.176;9.486;2022-08-30T04:46:56;16.00;99.90
18139;DHT22;9195;53.176;9.486;2022-08-30T04:49:22;16.00;99.90
18139;DHT22;9195;53.176;9.486;2022-08-30T04:51:47;16.00;99.90
18139;DHT22;9195;53.176;9.486;2022-08-30T04:54:13;16.10;99.90
18139;DHT22;9195;53.176;9.486;2022-08-30T04:56:39;16.10;99.90
18139;DHT22;9195;53.176;9.486;2022-08-30T04:59:04;16.10;99.90
18139;DHT22;9195;53.176;9.486;2022-08-30T05:01:31;16.10;99.90
18139;DHT22;9195;53.176;9.486;2022-08-30T05:03:58;16.10;99.90
18139;DHT22;9195;53.176;9.486;2022-08-30T05:06:25;16.10;99.90
18139;DHT22;9195;53.176;9.486;2022-08-30T05:08:51;16.10;99.90
18139;DHT22;9195;53.176;9.486;2022-08-30T05:11:19;16.10;99.90
18139;DHT22;9195;53.176;9.486;2022-08-30T05:13:45;16.10;99.90
18139;DHT22;9195;53.176;9.486;2022-08-30T05:16:12;16.20;99.90
18139;DHT22;9195;53.176;9.486;2022-08-30T05:18:43;16.20;99.90
18139;DHT22;9195;53.176;9.486;2022-08-30T05:21:21;16.20;99.90
18139;DHT22;9195;53.176;9.486;2022-08-30T05:23:48;16.30;99.90
18139;DHT22;9195;53.176;9.486;2022-08-30T05:26:21;16.30;99.90
18139;DHT22;9195;53.176;9.486;2022-08-30T05:28:48;16.30;99.90
18139;DHT22;9195;53.176;9.486;2022-08-30T05:31:23;16.40;99.90
18139;DHT22;9195;53.176;9.486;2022-08-30T05:33:49;16.50;99.90
18139;DHT22;9195;53.176;9.486;2022-08-30T05:36:17;16.50;99.90
18139;DHT22;9195;53.176;9.486;2022-08-30T05:38:43;16.60;99.90
18139;DHT22;9195;53.176;9.486;2022-08-30T05:41:09;16.70;99.90
18139;DHT22;9195;53.176;9.486;2022-08-30T05:43:35;16.60;99.90
18139;DHT22;9195;53.176;9.486;2022-08-30T05:46:06;16.70;99.90
18139;DHT22;9195;53.176;9.486;2022-08-30T05:48:33;16.70;99.90
18139;DHT22;9195;53.176;9.486;2022-08-30T05:51:18;16.80;99.90
18139;DHT22;9195;53.176;9.486;2022-08-30T05:53:44;16.80;99.90
18139;DHT22;9195;53.176;9.486;2022-08-30T05:56:12;16.80;99.90
18139;DHT22;9195;53.176;9.486;2022-08-30T05:58:38;16.90;99.90
18139;DHT22;9195;53.176;9.486;2022-08-30T06:01:04;16.90;99.90
18139;DHT22;9195;53.176;9.486;2022-08-30T06:03:30;17.00;99.90
18139;DHT22;9195;53.176;9.486;2022-08-30T06:05:59;17.00;99.90
18139;DHT22;9195;53.176;9.486;2022-08-30T06:08:25;17.10;99.90
18139;DHT22;9195;53.176;9.486;2022-08-30T06:10:51;17.10;99.90
18139;DHT22;9195;53.176;9.486;2022-08-30T06:13:17;17.30;99.90
18139;DHT22;9195;53.176;9.486;2022-08-30T06:15:43;17.40;99.90
18139;DHT22;9195;53.176;9.486;2022-08-30T06:18:10;17.40;99.90
18139;DHT22;9195;53.176;9.486;2022-08-30T06:20:43;17.60;99.90
18139;DHT22;9195;53.176;9.486;2022-08-30T06:23:12;17.70;99.90
18139;DHT22;9195;53.176;9.486;2022-08-30T06:25:38;17.80;99.90
18139;DHT22;9195;53.176;9.486;2022-08-30T06:28:06;17.90;99.90
18139;DHT22;9195;53.176;9.486;2022-08-30T06:30:33;18.00;99.90
18139;DHT22;9195;53.176;9.486;2022-08-30T06:32:59;18.10;99.90
18139;DHT22;9195;53.176;9.486;2022-08-30T06:35:25;18.20;99.90
18139;DHT22;9195;53.176;9.486;2022-08-30T06:37:51;18.30;99.90
18139;DHT22;9195;53.176;9.486;2022-08-30T06:40:17;18.40;99.90
18139;DHT22;9195;53.176;9.486;2022-08-30T06:42:45;18.40;99.90
18139;DHT22;9195;53.176;9.486;2022-08-30T06:45:10;18.40;99.90
18139;DHT22;9195;53.176;9.486;2022-08-30T06:47:36;18.60;99.90
18139;DHT22;9195;53.176;9.486;2022-08-30T06:50:02;18.70;99.90
18139;DHT22;9195;53.176;9.486;2022-08-30T06:52:27;18.70;99.90
18139;DHT22;9195;53.176;9.486;2022-08-30T06:54:54;18.90;99.90
18139;DHT22;9195;53.176;9.486;2022-08-30T06:57:22;19.00;99.90
18139;DHT22;9195;53.176;9.486;2022-08-30T06:59:48;19.20;99.90
18139;DHT22;9195;53.176;9.486;2022-08-30T07:02:14;19.30;99.90
18139;DHT22;9195;53.176;9.486;2022-08-30T07:04:39;19.40;99.90
18139;DHT22;9195;53.176;9.486;2022-08-30T07:07:05;19.60;99.90
18139;DHT22;9195;53.176;9.486;2022-08-30T07:09:31;19.60;99.90
18139;DHT22;9195;53.176;9.486;2022-08-30T07:12:01;19.60;99.90
18139;DHT22;9195;53.176;9.486;2022-08-30T07:14:27;19.60;99.90
18139;DHT22;9195;53.176;9.486;2022-08-30T07:16:53;19.80;99.90
18139;DHT22;9195;53.176;9.486;2022-08-30T07:19:19;19.90;99.90
18139;DHT22;9195;53.176;9.486;2022-08-30T07:21:46;19.90;99.90
18139;DHT22;9195;53.176;9.486;2022-08-30T07:24:13;20.00;99.90
18139;DHT22;9195;53.176;9.486;2022-08-30T07:26:44;20.10;99.90
18139;DHT22;9195;53.176;9.486;2022-08-30T07:29:11;20.20;99.90
18139;DHT22;9195;53.176;9.486;2022-08-30T07:31:37;20.30;99.90
18139;DHT22;9195;53.176;9.486;2022-08-30T07:34:04;20.30;99.90
18139;DHT22;9195;53.176;9.486;2022-08-30T07:36:30;20.30;99.90
18139;DHT22;9195;53.176;9.486;2022-08-30T07:38:56;20.40;99.90
18139;DHT22;9195;53.176;9.486;2022-08-30T07:41:25;20.40;99.90
18139;DHT22;9195;53.176;9.486;2022-08-30T07:43:51;20.30;99.90
18139;DHT22;9195;53.176;9.486;2022-08-30T07:46:17;20.40;99.90
18139;DHT22;9195;53.176;9.486;2022-08-30T07:48:43;20.50;99.90
18139;DHT22;9195;53.176;9.486;2022-08-30T07:51:12;20.50;99.90
18139;DHT22;9195;53.176;9.486;2022-08-30T07:53:38;20.60;99.90
18139;DHT22;9195;53.176;9.486;2022-08-30T07:56:04;20.80;99.90
18139;DHT22;9195;53.176;9.486;2022-08-30T07:58:30;20.80;99.90
18139;DHT22;9195;53.176;9.486;2022-08-30T08:00:56;21.00;99.90
18139;DHT22;9195;53.176;9.486;2022-08-30T08:03:25;21.00;99.90
18139;DHT22;9195;53.176;9.486;2022-08-30T08:05:51;21.10;99.90
18139;DHT22;9195;53.176;9.486;2022-08-30T08:08:18;21.10;99.90
18139;DHT22;9195;53.176;9.486;2022-08-30T08:10:44;21.20;99.90
18139;DHT22;9195;53.176;9.486;2022-08-30T08:13:10;21.30;99.90
18139;DHT22;9195;53.176;9.486;2022-08-30T08:15:36;21.40;99.90
18139;DHT22;9195;53.176;9.486;2022-08-30T08:18:02;21.40;99.90
18139;DHT22;9195;53.176;9.486;2022-08-30T08:20:28;21.50;99.90
18139;DHT22;9195;53.176;9.486;2022-08-30T08:22:54;21.50;99.90
18139;DHT22;9195;53.176;9.486;2022-08-30T08:25:20;21.50;99.90
18139;DHT22;9195;53.176;9.486;2022-08-30T08:27:46;21.50;99.90
18139;DHT22;9195;53.176;9.486;2022-08-30T08:30:13;21.50;99.90
18139;DHT22;9195;53.176;9.486;2022-08-30T08:32:39;21.40;99.90
18139;DHT22;9195;53.176;9.486;2022-08-30T08:35:05;21.50;99.90
18139;DHT22;9195;53.176;9.486;2022-08-30T08:37:30;21.40;99.90
18139;DHT22;9195;53.176;9.486;2022-08-30T08:39:56;21.40;99.90
18139;DHT22;9195;53.176;9.486;2022-08-30T08:42:31;21.40;99.90
18139;DHT22;9195;53.176;9.486;2022-08-30T08:45:09;21.40;99.90
18139;DHT22;9195;53.176;9.486;2022-08-30T08:47:42;21.40;99.90
18139;DHT22;9195;53.176;9.486;2022-08-30T08:50:18;21.50;99.90
18139;DHT22;9195;53.176;9.486;2022-08-30T08:52:51;21.50;99.90
18139;DHT22;9195;53.176;9.486;2022-08-30T08:55:39;21.50;99.90
18139;DHT22;9195;53.176;9.486;2022-08-30T08:58:07;21.60;99.90
18139;DHT22;9195;53.176;9.486;2022-08-30T09:00:36;21.70;99.90
18139;DHT22;9195;53.176;9.486;2022-08-30T09:03:03;21.70;99.90
18139;DHT22;9195;53.176;9.486;2022-08-30T09:05:37;21.70;99.90
18139;DHT22;9195;53.176;9.486;2022-08-30T09:08:10;21.70;99.90
18139;DHT22;9195;53.176;9.486;2022-08-30T09:10:39;21.60;99.90
18139;DHT22;9195;53.176;9.486;2022-08-30T09:13:05;21.50;99.90
18139;DHT22;9195;53.176;9.486;2022-08-30T09:15:33;21.40;99.90
18139;DHT22;9195;53.176;9.486;2022-08-30T09:18:02;21.40;99.90
18139;DHT22;9195;53.176;9.486;2022-08-30T09:20:43;21.40;99.90
18139;DHT22;9195;53.176;9.486;2022-08-30T09:29:07;21.90;99.90
18139;DHT22;9195;53.176;9.486;2022-08-30T09:31:20;22.30;99.90
18139;DHT22;9195;53.176;9.486;2022-08-30T09:36:31;23.30;99.90
18139;DHT22;9195;53.176;9.486;2022-08-30T09:39:03;23.80;99.90
18139;DHT22;9195;53.176;9.486;2022-08-30T09:41:37;24.00;99.00
18139;DHT22;9195;53.176;9.486;2022-08-30T09:44:25;24.10;98.50
18139;DHT22;9195;53.176;9.486;2022-08-30T09:46:57;24.20;98.50
18139;DHT22;9195;53.176;9.486;2022-08-30T10:00:20;25.20;96.60
18139;DHT22;9195;53.176;9.486;2022-08-30T10:11:06;25.50;95.20
18139;DHT22;9195;53.176;9.486;2022-08-30T10:13:36;25.50;94.60
18139;DHT22;9195;53.176;9.486;2022-08-30T10:16:34;25.50;95.00
18139;DHT22;9195;53.176;9.486;2022-08-30T10:24:42;25.80;93.50
18139;DHT22;9195;53.176;9.486;2022-08-30T10:27:33;25.80;93.70
18139;DHT22;9195;53.176;9.486;2022-08-30T10:30:09;25.90;94.20
18139;DHT22;9195;53.176;9.486;2022-08-30T10:35:23;25.80;93.10
18139;DHT22;9195;53.176;9.486;2022-08-30T10:38:03;25.50;93.60
18139;DHT22;9195;53.176;9.486;2022-08-30T10:40:36;25.50;93.70
18139;DHT22;9195;53.176;9.486;2022-08-30T10:43:48;25.50;93.20
18139;DHT22;9195;53.176;9.486;2022-08-30T10:49:25;25.60;93.30
18139;DHT22;9195;53.176;9.486;2022-08-30T10:55:10;25.40;92.60
18139;DHT22;9195;53.176;9.486;2022-08-30T10:57:38;25.20;92.90
18139;DHT22;9195;53.176;9.486;2022-08-30T11:00:09;25.00;92.90
18139;DHT22;9195;53.176;9.486;2022-08-30T11:06:03;24.70;92.40
18139;DHT22;9195;53.176;9.486;2022-08-30T11:11:37;25.20;92.90
18139;DHT22;9195;53.176;9.486;2022-08-30T11:14:07;25.50;92.40
18139;DHT22;9195;53.176;9.486;2022-08-30T11:16:43;25.30;92.30
18139;DHT22;9195;53.176;9.486;2022-08-30T11:19:37;25.20;92.40
18139;DHT22;9195;53.176;9.486;2022-08-30T11:22:15;25.30;92.50
18139;DHT22;9195;53.176;9.486;2022-08-30T11:25:14;25.90;92.30
18139;DHT22;9195;53.176;9.486;2022-08-30T11:27:48;26.20;91.00
18139;DHT22;9195;53.176;9.486;2022-08-30T11:33:01;26.70;89.50
18139;DHT22;9195;53.176;9.486;2022-08-30T11:35:46;26.60;90.00
18139;DHT22;9195;53.176;9.486;2022-08-30T11:41:12;26.60;89.60
18139;DHT22;9195;53.176;9.486;2022-08-30T11:51:43;27.50;88.40
18139;DHT22;9195;53.176;9.486;2022-08-30T12:03:26;26.60;85.70
18139;DHT22;9195;53.176;9.486;2022-08-30T12:05:54;27.30;84.80
18139;DHT22;9195;53.176;9.486;2022-08-30T12:11:03;28.40;81.30
18139;DHT22;9195;53.176;9.486;2022-08-30T12:19:14;30.00;75.80
18139;DHT22;9195;53.176;9.486;2022-08-30T12:21:35;30.20;76.60
18139;DHT22;9195;53.176;9.486;2022-08-30T12:26:44;31.50;75.10
18139;DHT22;9195;53.176;9.486;2022-08-30T12:34:27;33.10;71.50
18139;DHT22;9195;53.176;9.486;2022-08-30T12:39:42;31.00;74.40
18139;DHT22;9195;53.176;9.486;2022-08-30T12:42:24;30.00;76.50
18139;DHT22;9195;53.176;9.486;2022-08-30T12:44:54;29.10;78.90
18139;DHT22;9195;53.176;9.486;2022-08-30T12:47:29;28.70;79.30
18139;DHT22;9195;53.176;9.486;2022-08-30T12:49:57;28.20;80.90
18139;DHT22;9195;53.176;9.486;2022-08-30T12:52:31;27.70;81.80
18139;DHT22;9195;53.176;9.486;2022-08-30T12:55:24;27.30;81.50
18139;DHT22;9195;53.176;9.486;2022-08-30T13:00:34;26.60;83.30
18139;DHT22;9195;53.176;9.486;2022-08-30T13:05:49;26.00;84.40
18139;DHT22;9195;53.176;9.486;2022-08-30T13:08:17;25.70;85.30
18139;DHT22;9195;53.176;9.486;2022-08-30T13:10:50;25.70;85.60
18139;DHT22;9195;53.176;9.486;2022-08-30T13:13:27;25.70;86.10
18139;DHT22;9195;53.176;9.486;2022-08-30T13:15:53;25.70;84.90
18139;DHT22;9195;53.176;9.486;2022-08-30T13:18:27;25.70;84.20
18139;DHT22;9195;53.176;9.486;2022-08-30T13:21:24;25.80;83.70
18139;DHT22;9195;53.176;9.486;2022-08-30T13:23:53;25.90;83.40
18139;DHT22;9195;53.176;9.486;2022-08-30T13:26:19;25.90;80.90
18139;DHT22;9195;53.176;9.486;2022-08-30T13:31:15;26.80;81.80
18139;DHT22;9195;53.176;9.486;2022-08-30T13:33:41;27.00;81.40
18139;DHT22;9195;53.176;9.486;2022-08-30T13:36:10;27.50;80.80
18139;DHT22;9195;53.176;9.486;2022-08-30T13:38:35;34.40;71.90
18139;DHT22;9195;53.176;9.486;2022-08-30T13:41:01;38.40;62.40
18139;DHT22;9195;53.176;9.486;2022-08-30T13:43:27;41.60;57.70
18139;DHT22;9195;53.176;9.486;2022-08-30T13:45:52;44.50;52.80
18139;DHT22;9195;53.176;9.486;2022-08-30T13:48:18;47.00;48.70
18139;DHT22;9195;53.176;9.486;2022-08-30T13:50:43;48.10;45.90
18139;DHT22;9195;53.176;9.486;2022-08-30T13:53:09;48.20;44.70
18139;DHT22;9195;53.176;9.486;2022-08-30T13:55:36;49.70;43.50
18139;DHT22;9195;53.176;9.486;2022-08-30T13:58:02;51.10;42.50
18139;DHT22;9195;53.176;9.486;2022-08-30T14:00:28;47.60;42.90
18139;DHT22;9195;53.176;9.486;2022-08-30T14:02:54;48.80;42.20
18139;DHT22;9195;53.176;9.486;2022-08-30T14:05:25;45.80;43.20
18139;DHT22;9195;53.176;9.486;2022-08-30T14:07:52;47.30;43.10
18139;DHT22;9195;53.176;9.486;2022-08-30T14:10:18;44.50;44.40
18139;DHT22;9195;53.176;9.486;2022-08-30T14:12:45;43.00;47.20
18139;DHT22;9195;53.176;9.486;2022-08-30T14:15:10;44.40;45.20
18139;DHT22;9195;53.176;9.486;2022-08-30T14:17:36;40.90;47.30
18139;DHT22;9195;53.176;9.486;2022-08-30T14:20:02;39.00;50.40
18139;DHT22;9195;53.176;9.486;2022-08-30T14:22:27;37.60;51.90
18139;DHT22;9195;53.176;9.486;2022-08-30T14:24:53;36.30;53.60
18139;DHT22;9195;53.176;9.486;2022-08-30T14:27:19;34.70;55.10
18139;DHT22;9195;53.176;9.486;2022-08-30T14:29:45;34.20;57.50
18139;DHT22;9195;53.176;9.486;2022-08-30T14:32:10;33.80;57.70
18139;DHT22;9195;53.176;9.486;2022-08-30T14:34:36;34.10;58.00
18139;DHT22;9195;53.176;9.486;2022-08-30T14:37:02;33.10;59.00
18139;DHT22;9195;53.176;9.486;2022-08-30T14:39:29;32.40;59.50
18139;DHT22;9195;53.176;9.486;2022-08-30T14:41:55;32.00;60.70
18139;DHT22;9195;53.176;9.486;2022-08-30T14:44:22;31.40;61.50
18139;DHT22;9195;53.176;9.486;2022-08-30T14:46:48;32.70;60.80
18139;DHT22;9195;53.176;9.486;2022-08-30T14:49:14;31.80;61.80
18139;DHT22;9195;53.176;9.486;2022-08-30T14:51:40;30.90;62.70
18139;DHT22;9195;53.176;9.486;2022-08-30T14:54:07;29.90;64.20
18139;DHT22;9195;53.176;9.486;2022-08-30T14:56:32;29.30;65.30
18139;DHT22;9195;53.176;9.486;2022-08-30T14:58:58;28.80;67.10
18139;DHT22;9195;53.176;9.486;2022-08-30T15:01:28;28.40;68.20
18139;DHT22;9195;53.176;9.486;2022-08-30T15:03:54;28.00;68.70
18139;DHT22;9195;53.176;9.486;2022-08-30T15:06:20;27.70;69.20
18139;DHT22;9195;53.176;9.486;2022-08-30T15:08:46;27.20;69.90
18139;DHT22;9195;53.176;9.486;2022-08-30T15:11:13;26.70;70.90
18139;DHT22;9195;53.176;9.486;2022-08-30T15:13:39;26.20;72.10
18139;DHT22;9195;53.176;9.486;2022-08-30T15:16:11;25.90;73.20
18139;DHT22;9195;53.176;9.486;2022-08-30T15:18:37;25.60;74.40
18139;DHT22;9195;53.176;9.486;2022-08-30T15:21:03;25.30;75.80
18139;DHT22;9195;53.176;9.486;2022-08-30T15:23:29;25.40;76.40
18139;DHT22;9195;53.176;9.486;2022-08-30T15:25:54;26.30;75.70
18139;DHT22;9195;53.176;9.486;2022-08-30T15:28:20;29.40;71.00
18139;DHT22;9195;53.176;9.486;2022-08-30T15:30:46;32.60;63.20
18139;DHT22;9195;53.176;9.486;2022-08-30T15:33:11;31.70;62.50
18139;DHT22;9195;53.176;9.486;2022-08-30T15:35:37;30.80;64.30
18139;DHT22;9195;53.176;9.486;2022-08-30T15:38:02;34.90;61.00
18139;DHT22;9195;53.176;9.486;2022-08-30T15:40:28;40.00;54.30
18139;DHT22;9195;53.176;9.486;2022-08-30T15:42:55;43.30;50.00
18139;DHT22;9195;53.176;9.486;2022-08-30T15:45:21;45.60;46.50
18139;DHT22;9195;53.176;9.486;2022-08-30T15:47:46;47.00;44.90
18139;DHT22;9195;53.176;9.486;2022-08-30T15:50:12;48.20;43.50
18139;DHT22;9195;53.176;9.486;2022-08-30T15:52:38;48.70;42.10
18139;DHT22;9195;53.176;9.486;2022-08-30T15:55:04;48.00;41.90
18139;DHT22;9195;53.176;9.486;2022-08-30T15:57:29;43.10;44.30
18139;DHT22;9195;53.176;9.486;2022-08-30T15:59:55;38.90;48.50
18139;DHT22;9195;53.176;9.486;2022-08-30T16:02:21;35.30;53.00
18139;DHT22;9195;53.176;9.486;2022-08-30T16:04:47;33.00;56.70
18139;DHT22;9195;53.176;9.486;2022-08-30T16:07:12;31.20;59.50
18139;DHT22;9195;53.176;9.486;2022-08-30T16:09:38;29.70;62.70
18139;DHT22;9195;53.176;9.486;2022-08-30T16:12:06;28.60;65.10
18139;DHT22;9195;53.176;9.486;2022-08-30T16:14:32;27.80;67.20
18139;DHT22;9195;53.176;9.486;2022-08-30T16:16:58;27.50;68.50
18139;DHT22;9195;53.176;9.486;2022-08-30T16:19:24;28.30;68.70
18139;DHT22;9195;53.176;9.486;2022-08-30T16:21:50;29.90;64.00
18139;DHT22;9195;53.176;9.486;2022-08-30T16:24:16;31.80;62.80
18139;DHT22;9195;53.176;9.486;2022-08-30T16:26:45;35.90;56.50
18139;DHT22;9195;53.176;9.486;2022-08-30T16:29:12;36.00;56.00
18139;DHT22;9195;53.176;9.486;2022-08-30T16:31:38;38.50;53.80
18139;DHT22;9195;53.176;9.486;2022-08-30T16:34:04;38.60;52.00
18139;DHT22;9195;53.176;9.486;2022-08-30T16:36:31;38.10;52.40
18139;DHT22;9195;53.176;9.486;2022-08-30T16:38:57;36.70;53.90
18139;DHT22;9195;53.176;9.486;2022-08-30T16:41:23;34.40;55.60
18139;DHT22;9195;53.176;9.486;2022-08-30T16:43:49;32.50;58.00
18139;DHT22;9195;53.176;9.486;2022-08-30T16:46:16;30.80;60.90
18139;DHT22;9195;53.176;9.486;2022-08-30T16:48:43;29.50;63.60
18139;DHT22;9195;53.176;9.486;2022-08-30T16:51:15;28.50;65.40
18139;DHT22;9195;53.176;9.486;2022-08-30T16:53:41;27.60;66.40
18139;DHT22;9195;53.176;9.486;2022-08-30T16:56:13;26.80;68.30
18139;DHT22;9195;53.176;9.486;2022-08-30T16:58:40;26.10;69.70
18139;DHT22;9195;53.176;9.486;2022-08-30T17:01:05;25.60;70.70
18139;DHT22;9195;53.176;9.486;2022-08-30T17:03:31;25.00;71.90
18139;DHT22;9195;53.176;9.486;2022-08-30T17:05:57;24.60;73.30
18139;DHT22;9195;53.176;9.486;2022-08-30T17:08:23;24.20;74.20
18139;DHT22;9195;53.176;9.486;2022-08-30T17:10:48;23.90;75.20
18139;DHT22;9195;53.176;9.486;2022-08-30T17:13:14;23.70;75.60
18139;DHT22;9195;53.176;9.486;2022-08-30T17:15:39;23.40;76.10
18139;DHT22;9195;53.176;9.486;2022-08-30T17:18:05;23.20;76.40
18139;DHT22;9195;53.176;9.486;2022-08-30T17:20:31;23.10;76.80
18139;DHT22;9195;53.176;9.486;2022-08-30T17:22:58;22.90;77.10
18139;DHT22;9195;53.176;9.486;2022-08-30T17:25:25;22.80;77.50
18139;DHT22;9195;53.176;9.486;2022-08-30T17:27:51;22.50;77.80